EZY56N EGKK-EGPH
Flight info
| Callsign | EZY56N |
|---|---|
| Flight time | 1h 1m |
| Altitude | 36000 |
| Route | LAM L10 BPK UN601 RIBEL DCT INPIP |
| Aircraft | A320/M-SDE2E3FGHIRWXY/LB1 |
Departure
| Time | 2026-04-25 22:18 |
|---|---|
| Airport | London Gatwick Airport (EGKK) |
Arrival
| Time | 2026-04-25 23:20 |
|---|---|
| Airport | Edinburgh Airport (EGPH) |
| Time | Latitude | Longitude | Altitude | Speed | Heading |
|---|---|---|---|---|---|
| 2026-04-25 21:41 | 51.15888 | -0.17315 | 213 ft | 0 kts | 348° |
| 2026-04-25 22:02 | 51.15884 | -0.17314 | 213 ft | 3 kts | 348° |
| 2026-04-25 22:02 | 51.15858 | -0.17305 | 210 ft | 4 kts | 348° |
| 2026-04-25 22:02 | 51.15837 | -0.17298 | 205 ft | 4 kts | 345° |
| 2026-04-25 22:02 | 51.15812 | -0.17284 | 216 ft | 4 kts | 326° |
| 2026-04-25 22:03 | 51.15798 | -0.17258 | 210 ft | 4 kts | 264° |
| 2026-04-25 22:03 | 51.15802 | -0.17218 | 209 ft | 4 kts | 258° |
| 2026-04-25 22:03 | 51.15806 | -0.17184 | 213 ft | 0 kts | 258° |
| 2026-04-25 22:07 | 51.15790 | -0.17303 | 208 ft | 20 kts | 257° |
| 2026-04-25 22:07 | 51.15768 | -0.17464 | 208 ft | 14 kts | 257° |
| 2026-04-25 22:08 | 51.15746 | -0.17617 | 212 ft | 14 kts | 257° |
| 2026-04-25 22:08 | 51.15726 | -0.17764 | 206 ft | 13 kts | 258° |
| 2026-04-25 22:08 | 51.15708 | -0.17903 | 204 ft | 12 kts | 258° |
| 2026-04-25 22:08 | 51.15690 | -0.18028 | 212 ft | 11 kts | 257° |
| 2026-04-25 22:09 | 51.15675 | -0.18136 | 207 ft | 9 kts | 257° |
| 2026-04-25 22:09 | 51.15655 | -0.18273 | 206 ft | 14 kts | 257° |
| 2026-04-25 22:09 | 51.15592 | -0.18339 | 204 ft | 12 kts | 166° |
| 2026-04-25 22:09 | 51.15520 | -0.18320 | 214 ft | 10 kts | 169° |
| 2026-04-25 22:10 | 51.15459 | -0.18302 | 213 ft | 9 kts | 169° |
| 2026-04-25 22:10 | 51.15373 | -0.18272 | 212 ft | 13 kts | 167° |
| 2026-04-25 22:10 | 51.15289 | -0.18243 | 212 ft | 11 kts | 167° |
| 2026-04-25 22:10 | 51.15217 | -0.18224 | 206 ft | 9 kts | 188° |
| 2026-04-25 22:11 | 51.15185 | -0.18300 | 215 ft | 13 kts | 263° |
| 2026-04-25 22:11 | 51.15161 | -0.18499 | 209 ft | 19 kts | 258° |
| 2026-04-25 22:11 | 51.15131 | -0.18718 | 203 ft | 21 kts | 257° |
| 2026-04-25 22:11 | 51.15102 | -0.18922 | 207 ft | 18 kts | 257° |
| 2026-04-25 22:12 | 51.15074 | -0.19127 | 207 ft | 20 kts | 257° |
| 2026-04-25 22:12 | 51.15044 | -0.19346 | 210 ft | 21 kts | 257° |
| 2026-04-25 22:12 | 51.15012 | -0.19577 | 214 ft | 22 kts | 257° |
| 2026-04-25 22:12 | 51.14990 | -0.19738 | 204 ft | 23 kts | 257° |
| 2026-04-25 22:13 | 51.14951 | -0.20025 | 207 ft | 17 kts | 258° |
| 2026-04-25 22:13 | 51.14925 | -0.20217 | 208 ft | 18 kts | 257° |
| 2026-04-25 22:13 | 51.14896 | -0.20424 | 213 ft | 20 kts | 257° |
| 2026-04-25 22:13 | 51.14866 | -0.20638 | 208 ft | 19 kts | 258° |
| 2026-04-25 22:14 | 51.14839 | -0.20842 | 212 ft | 15 kts | 258° |
| 2026-04-25 22:14 | 51.14817 | -0.21003 | 204 ft | 15 kts | 258° |
| 2026-04-25 22:14 | 51.14788 | -0.21170 | 210 ft | 16 kts | 249° |
| 2026-04-25 22:14 | 51.14761 | -0.21340 | 204 ft | 12 kts | 257° |
| 2026-04-25 22:15 | 51.14706 | -0.21402 | 207 ft | 10 kts | 175° |
| 2026-04-25 22:15 | 51.14656 | -0.21351 | 216 ft | 8 kts | 140° |
| 2026-04-25 22:15 | 51.14646 | -0.21341 | 210 ft | 0 kts | 148° |
| 2026-04-25 22:16 | 51.14635 | -0.21333 | 207 ft | 11 kts | 156° |
| 2026-04-25 22:16 | 51.14524 | -0.21228 | 212 ft | 21 kts | 117° |
| 2026-04-25 22:17 | 51.14542 | -0.21004 | 214 ft | 21 kts | 77° |
| 2026-04-25 22:17 | 51.14573 | -0.20781 | 212 ft | 20 kts | 77° |
| 2026-04-25 22:17 | 51.14597 | -0.20611 | 206 ft | 14 kts | 77° |
| 2026-04-25 22:17 | 51.14637 | -0.20326 | 206 ft | 59 kts | 77° |
| 2026-04-25 22:18 | 51.14787 | -0.19228 | 215 ft | 140 kts | 78° |
| 2026-04-25 22:18 | 51.15033 | -0.17437 | 463 ft | 177 kts | 77° |
| 2026-04-25 22:18 | 51.15296 | -0.15487 | 1137 ft | 184 kts | 78° |
| 2026-04-25 22:18 | 51.15559 | -0.13488 | 1830 ft | 183 kts | 78° |
| 2026-04-25 22:19 | 51.15813 | -0.11505 | 2497 ft | 182 kts | 78° |
| 2026-04-25 22:19 | 51.16076 | -0.09505 | 3007 ft | 192 kts | 77° |
| 2026-04-25 22:19 | 51.16431 | -0.07335 | 3260 ft | 214 kts | 67° |
| 2026-04-25 22:19 | 51.17259 | -0.05261 | 3563 ft | 234 kts | 51° |
| 2026-04-25 22:20 | 51.18316 | -0.03121 | 3939 ft | 257 kts | 51° |
| 2026-04-25 22:20 | 51.19442 | -0.00821 | 4550 ft | 269 kts | 52° |
| 2026-04-25 22:20 | 51.20591 | 0.01548 | 5111 ft | 271 kts | 52° |
| 2026-04-25 22:20 | 51.21745 | 0.03942 | 6013 ft | 273 kts | 52° |
| 2026-04-25 22:21 | 51.22910 | 0.06361 | 6875 ft | 277 kts | 52° |
| 2026-04-25 22:21 | 51.24085 | 0.08811 | 7713 ft | 280 kts | 53° |
| 2026-04-25 22:21 | 51.25018 | 0.11509 | 8494 ft | 285 kts | 71° |
| 2026-04-25 22:21 | 51.25468 | 0.14603 | 9286 ft | 288 kts | 79° |
| 2026-04-25 22:22 | 51.25843 | 0.17805 | 10092 ft | 291 kts | 79° |
| 2026-04-25 22:22 | 51.26212 | 0.20953 | 10852 ft | 294 kts | 79° |
| 2026-04-25 22:22 | 51.26591 | 0.24186 | 11599 ft | 298 kts | 79° |
| 2026-04-25 22:22 | 51.27126 | 0.27456 | 11970 ft | 316 kts | 65° |
| 2026-04-25 22:23 | 51.28448 | 0.30365 | 12220 ft | 335 kts | 40° |
| 2026-04-25 22:23 | 51.30465 | 0.32255 | 12767 ft | 341 kts | 18° |
| 2026-04-25 22:23 | 51.32816 | 0.32779 | 13406 ft | 345 kts | 355° |
| 2026-04-25 22:23 | 51.35147 | 0.31888 | 14040 ft | 348 kts | 338° |
| 2026-04-25 22:24 | 51.37397 | 0.30406 | 14698 ft | 351 kts | 336° |
| 2026-04-25 22:24 | 51.39648 | 0.28868 | 15336 ft | 354 kts | 336° |
| 2026-04-25 22:24 | 51.41923 | 0.27304 | 15958 ft | 357 kts | 336° |
| 2026-04-25 22:24 | 51.44213 | 0.25727 | 16559 ft | 360 kts | 336° |
| 2026-04-25 22:25 | 51.46526 | 0.24131 | 17164 ft | 363 kts | 336° |
| 2026-04-25 22:25 | 51.48855 | 0.22522 | 17740 ft | 366 kts | 336° |
| 2026-04-25 22:25 | 51.51206 | 0.20896 | 18304 ft | 369 kts | 336° |
| 2026-04-25 22:25 | 51.53576 | 0.19255 | 18812 ft | 373 kts | 336° |
| 2026-04-25 22:26 | 51.55964 | 0.17600 | 18965 ft | 374 kts | 336° |
| 2026-04-25 22:26 | 51.58354 | 0.15941 | 19008 ft | 374 kts | 336° |
| 2026-04-25 22:26 | 51.60740 | 0.14284 | 19009 ft | 374 kts | 336° |
| 2026-04-25 22:26 | 51.63126 | 0.12626 | 19009 ft | 374 kts | 336° |
| 2026-04-25 22:27 | 51.65511 | 0.10966 | 19008 ft | 374 kts | 336° |
| 2026-04-25 22:27 | 51.67898 | 0.09305 | 19008 ft | 374 kts | 336° |
| 2026-04-25 22:27 | 51.70284 | 0.07641 | 19009 ft | 374 kts | 336° |
| 2026-04-25 22:27 | 51.72672 | 0.05976 | 19009 ft | 374 kts | 336° |
| 2026-04-25 22:28 | 51.75057 | 0.04310 | 19009 ft | 374 kts | 336° |
| 2026-04-25 22:28 | 51.77412 | 0.02665 | 19009 ft | 374 kts | 336° |
| 2026-04-25 22:28 | 51.79797 | 0.00997 | 19009 ft | 374 kts | 336° |
| 2026-04-25 22:28 | 51.81407 | -0.00130 | 19008 ft | 374 kts | 336° |
| 2026-04-25 22:29 | 51.83793 | -0.01801 | 19009 ft | 374 kts | 336° |
| 2026-04-25 22:29 | 51.86177 | -0.03472 | 19009 ft | 374 kts | 336° |
| 2026-04-25 22:29 | 51.89339 | -0.05691 | 19009 ft | 374 kts | 336° |
| 2026-04-25 22:30 | 51.93338 | -0.08501 | 19009 ft | 374 kts | 336° |
| 2026-04-25 22:30 | 51.95723 | -0.10178 | 19009 ft | 374 kts | 336° |
| 2026-04-25 22:30 | 51.98109 | -0.11859 | 19009 ft | 374 kts | 336° |
| 2026-04-25 22:30 | 51.99689 | -0.12972 | 19042 ft | 376 kts | 336° |
| 2026-04-25 22:31 | 52.02909 | -0.15243 | 19794 ft | 379 kts | 336° |
| 2026-04-25 22:31 | 52.05330 | -0.16953 | 20334 ft | 381 kts | 336° |
| 2026-04-25 22:31 | 52.07772 | -0.18679 | 20846 ft | 384 kts | 336° |
| 2026-04-25 22:31 | 52.10231 | -0.20419 | 21333 ft | 387 kts | 336° |
| 2026-04-25 22:32 | 52.12709 | -0.22174 | 21809 ft | 390 kts | 336° |
| 2026-04-25 22:32 | 52.15202 | -0.23942 | 22266 ft | 392 kts | 336° |
| 2026-04-25 22:32 | 52.17715 | -0.25726 | 22722 ft | 395 kts | 336° |
| 2026-04-25 22:32 | 52.20208 | -0.27498 | 23155 ft | 398 kts | 336° |
| 2026-04-25 22:33 | 52.22621 | -0.29714 | 23571 ft | 400 kts | 324° |
| 2026-04-25 22:33 | 52.24934 | -0.32369 | 23992 ft | 403 kts | 324° |
| 2026-04-25 22:33 | 52.27225 | -0.35020 | 24402 ft | 405 kts | 324° |
| 2026-04-25 22:33 | 52.29529 | -0.37694 | 24799 ft | 408 kts | 324° |
| 2026-04-25 22:34 | 52.31845 | -0.40390 | 25186 ft | 410 kts | 324° |
| 2026-04-25 22:34 | 52.34174 | -0.43106 | 25565 ft | 413 kts | 324° |
| 2026-04-25 22:34 | 52.36486 | -0.45806 | 25932 ft | 415 kts | 324° |
| 2026-04-25 22:34 | 52.38840 | -0.48560 | 26294 ft | 417 kts | 324° |
| 2026-04-25 22:35 | 52.41240 | -0.51366 | 26654 ft | 419 kts | 324° |
| 2026-04-25 22:35 | 52.43619 | -0.54149 | 27001 ft | 422 kts | 324° |
| 2026-04-25 22:35 | 52.45983 | -0.56913 | 27333 ft | 424 kts | 324° |
| 2026-04-25 22:35 | 52.48391 | -0.59733 | 27666 ft | 426 kts | 324° |
| 2026-04-25 22:36 | 52.50808 | -0.62572 | 27989 ft | 429 kts | 324° |
| 2026-04-25 22:36 | 52.53234 | -0.65432 | 28317 ft | 431 kts | 324° |
| 2026-04-25 22:36 | 52.55676 | -0.68312 | 28631 ft | 433 kts | 324° |
| 2026-04-25 22:36 | 52.58124 | -0.71206 | 28942 ft | 435 kts | 324° |
| 2026-04-25 22:37 | 52.60590 | -0.74124 | 29241 ft | 437 kts | 324° |
| 2026-04-25 22:37 | 52.63064 | -0.77054 | 29535 ft | 439 kts | 324° |
| 2026-04-25 22:37 | 52.65548 | -0.79994 | 29824 ft | 441 kts | 324° |
| 2026-04-25 22:37 | 52.68046 | -0.82959 | 30097 ft | 443 kts | 324° |
| 2026-04-25 22:38 | 52.70551 | -0.85940 | 30380 ft | 445 kts | 324° |
| 2026-04-25 22:38 | 52.73066 | -0.88936 | 30637 ft | 447 kts | 324° |
| 2026-04-25 22:38 | 52.75588 | -0.91946 | 30900 ft | 448 kts | 324° |
| 2026-04-25 22:38 | 52.78118 | -0.94968 | 31150 ft | 450 kts | 324° |
| 2026-04-25 22:39 | 52.80660 | -0.98009 | 31441 ft | 451 kts | 324° |
| 2026-04-25 22:39 | 52.83193 | -1.01044 | 31787 ft | 450 kts | 324° |
| 2026-04-25 22:39 | 52.85724 | -1.04077 | 32127 ft | 449 kts | 324° |
| 2026-04-25 22:39 | 52.88248 | -1.07103 | 32462 ft | 448 kts | 324° |
| 2026-04-25 22:40 | 52.90769 | -1.10132 | 32792 ft | 447 kts | 324° |
| 2026-04-25 22:40 | 52.93281 | -1.13154 | 33115 ft | 446 kts | 324° |
| 2026-04-25 22:40 | 52.95794 | -1.16178 | 33428 ft | 446 kts | 323° |
| 2026-04-25 22:40 | 52.98299 | -1.19202 | 33738 ft | 445 kts | 323° |
| 2026-04-25 22:41 | 53.00798 | -1.22230 | 34048 ft | 445 kts | 323° |
| 2026-04-25 22:41 | 53.03296 | -1.25262 | 34346 ft | 444 kts | 323° |
| 2026-04-25 22:41 | 53.05788 | -1.28287 | 34631 ft | 444 kts | 323° |
| 2026-04-25 22:41 | 53.08277 | -1.31312 | 34908 ft | 443 kts | 323° |
| 2026-04-25 22:42 | 53.10765 | -1.34337 | 35176 ft | 443 kts | 323° |
| 2026-04-25 22:42 | 53.13248 | -1.37361 | 35434 ft | 442 kts | 323° |
| 2026-04-25 22:42 | 53.15727 | -1.40389 | 35683 ft | 442 kts | 323° |
| 2026-04-25 22:42 | 53.18203 | -1.43421 | 35912 ft | 442 kts | 323° |
| 2026-04-25 22:43 | 53.23132 | -1.49464 | 36009 ft | 437 kts | 323° |
| 2026-04-25 22:43 | 53.28020 | -1.55464 | 36008 ft | 436 kts | 323° |
| 2026-04-25 22:44 | 53.32904 | -1.61475 | 36008 ft | 436 kts | 323° |
| 2026-04-25 22:44 | 53.37786 | -1.67510 | 36008 ft | 436 kts | 323° |
| 2026-04-25 22:45 | 53.42668 | -1.73577 | 36009 ft | 437 kts | 323° |
| 2026-04-25 22:45 | 53.47547 | -1.79648 | 36010 ft | 437 kts | 323° |
| 2026-04-25 22:46 | 53.52430 | -1.85725 | 36011 ft | 437 kts | 323° |
| 2026-04-25 22:46 | 53.57312 | -1.91816 | 36010 ft | 437 kts | 323° |
| 2026-04-25 22:47 | 53.62248 | -1.97787 | 36014 ft | 437 kts | 326° |
| 2026-04-25 22:47 | 53.67404 | -2.03219 | 36015 ft | 437 kts | 329° |
| 2026-04-25 22:48 | 53.72608 | -2.08498 | 36017 ft | 437 kts | 328° |
| 2026-04-25 22:48 | 53.78066 | -2.12811 | 36013 ft | 437 kts | 338° |
| 2026-04-25 22:49 | 53.83739 | -2.16684 | 36013 ft | 437 kts | 338° |
| 2026-04-25 22:49 | 53.89365 | -2.20561 | 36016 ft | 436 kts | 338° |
| 2026-04-25 22:50 | 53.94978 | -2.24413 | 36020 ft | 436 kts | 338° |
| 2026-04-25 22:50 | 54.00612 | -2.28263 | 36021 ft | 436 kts | 338° |
| 2026-04-25 22:51 | 54.06233 | -2.32129 | 35966 ft | 435 kts | 338° |
| 2026-04-25 22:51 | 54.08993 | -2.34042 | 35606 ft | 433 kts | 338° |
| 2026-04-25 22:51 | 54.11790 | -2.35983 | 35360 ft | 433 kts | 338° |
| 2026-04-25 22:52 | 54.14580 | -2.37920 | 35106 ft | 433 kts | 338° |
| 2026-04-25 22:52 | 54.17363 | -2.39851 | 34856 ft | 432 kts | 338° |
| 2026-04-25 22:52 | 54.20138 | -2.41780 | 34607 ft | 430 kts | 338° |
| 2026-04-25 22:52 | 54.21972 | -2.43056 | 34438 ft | 429 kts | 338° |
| 2026-04-25 22:53 | 54.25658 | -2.45626 | 34105 ft | 427 kts | 338° |
| 2026-04-25 22:53 | 54.28402 | -2.47543 | 33855 ft | 424 kts | 338° |
| 2026-04-25 22:53 | 54.31128 | -2.49450 | 33607 ft | 422 kts | 337° |
| 2026-04-25 22:53 | 54.33836 | -2.51349 | 33355 ft | 420 kts | 337° |
| 2026-04-25 22:54 | 54.36537 | -2.53245 | 33105 ft | 419 kts | 337° |
| 2026-04-25 22:54 | 54.39234 | -2.55141 | 32855 ft | 418 kts | 337° |
| 2026-04-25 22:54 | 54.41918 | -2.57029 | 32601 ft | 416 kts | 337° |
| 2026-04-25 22:54 | 54.44593 | -2.58909 | 32353 ft | 414 kts | 337° |
| 2026-04-25 22:55 | 54.47246 | -2.60779 | 32107 ft | 412 kts | 337° |
| 2026-04-25 22:55 | 54.49893 | -2.62649 | 31862 ft | 410 kts | 337° |
| 2026-04-25 22:55 | 54.52531 | -2.64510 | 31602 ft | 409 kts | 337° |
| 2026-04-25 22:55 | 54.55157 | -2.66365 | 31352 ft | 407 kts | 337° |
| 2026-04-25 22:56 | 54.57765 | -2.68212 | 30997 ft | 404 kts | 338° |
| 2026-04-25 22:56 | 54.60432 | -2.69639 | 30550 ft | 400 kts | 347° |
| 2026-04-25 22:56 | 54.63135 | -2.70679 | 30082 ft | 397 kts | 347° |
| 2026-04-25 22:56 | 54.65817 | -2.71721 | 29624 ft | 394 kts | 347° |
| 2026-04-25 22:57 | 54.68483 | -2.72761 | 29159 ft | 391 kts | 347° |
| 2026-04-25 22:57 | 54.71128 | -2.73791 | 28693 ft | 388 kts | 347° |
| 2026-04-25 22:57 | 54.73753 | -2.74809 | 28237 ft | 385 kts | 347° |
| 2026-04-25 22:57 | 54.76360 | -2.75823 | 27777 ft | 383 kts | 347° |
| 2026-04-25 22:58 | 54.78946 | -2.76835 | 27328 ft | 380 kts | 347° |
| 2026-04-25 22:58 | 54.81514 | -2.77838 | 26888 ft | 377 kts | 347° |
| 2026-04-25 22:58 | 54.84058 | -2.78829 | 26431 ft | 374 kts | 347° |
| 2026-04-25 22:58 | 54.86590 | -2.79817 | 25991 ft | 371 kts | 347° |
| 2026-04-25 22:59 | 54.89099 | -2.80799 | 25549 ft | 368 kts | 347° |
| 2026-04-25 22:59 | 54.91591 | -2.81776 | 25110 ft | 366 kts | 347° |
| 2026-04-25 22:59 | 54.94030 | -2.82734 | 24675 ft | 363 kts | 347° |
| 2026-04-25 22:59 | 54.96486 | -2.83701 | 24234 ft | 361 kts | 347° |
| 2026-04-25 23:00 | 54.98925 | -2.84659 | 23790 ft | 358 kts | 347° |
| 2026-04-25 23:00 | 55.01350 | -2.85613 | 23358 ft | 356 kts | 347° |
| 2026-04-25 23:00 | 55.03731 | -2.86703 | 22931 ft | 353 kts | 337° |
| 2026-04-25 23:00 | 55.05912 | -2.88624 | 22504 ft | 350 kts | 330° |
| 2026-04-25 23:01 | 55.08027 | -2.90712 | 22085 ft | 348 kts | 330° |
| 2026-04-25 23:01 | 55.10126 | -2.92804 | 21676 ft | 346 kts | 330° |
| 2026-04-25 23:01 | 55.12208 | -2.94884 | 21267 ft | 344 kts | 330° |
| 2026-04-25 23:01 | 55.14278 | -2.96954 | 20863 ft | 342 kts | 330° |
| 2026-04-25 23:02 | 55.16338 | -2.99017 | 20449 ft | 340 kts | 330° |
| 2026-04-25 23:02 | 55.18386 | -3.01069 | 20055 ft | 338 kts | 330° |
| 2026-04-25 23:02 | 55.20420 | -3.03109 | 19666 ft | 336 kts | 330° |
| 2026-04-25 23:02 | 55.22445 | -3.05142 | 19270 ft | 334 kts | 330° |
| 2026-04-25 23:03 | 55.24456 | -3.07164 | 18890 ft | 332 kts | 330° |
| 2026-04-25 23:03 | 55.26457 | -3.09176 | 18512 ft | 331 kts | 330° |
| 2026-04-25 23:03 | 55.28444 | -3.11177 | 18144 ft | 329 kts | 334° |
| 2026-04-25 23:03 | 55.30629 | -3.12202 | 17775 ft | 326 kts | 358° |
| 2026-04-25 23:04 | 55.32895 | -3.12059 | 17345 ft | 327 kts | 4° |
| 2026-04-25 23:04 | 55.34400 | -3.11841 | 17013 ft | 329 kts | 5° |
| 2026-04-25 23:04 | 55.37469 | -3.11364 | 16342 ft | 332 kts | 5° |
| 2026-04-25 23:04 | 55.39781 | -3.11001 | 15840 ft | 335 kts | 5° |
| 2026-04-25 23:05 | 55.42110 | -3.10634 | 15338 ft | 337 kts | 5° |
| 2026-04-25 23:05 | 55.44449 | -3.10265 | 14836 ft | 338 kts | 5° |
| 2026-04-25 23:05 | 55.46795 | -3.09894 | 14335 ft | 340 kts | 5° |
| 2026-04-25 23:05 | 55.49152 | -3.09521 | 13833 ft | 340 kts | 5° |
| 2026-04-25 23:06 | 55.51514 | -3.09147 | 13331 ft | 341 kts | 5° |
| 2026-04-25 23:06 | 55.53879 | -3.08773 | 12829 ft | 341 kts | 5° |
| 2026-04-25 23:06 | 55.56237 | -3.08399 | 12328 ft | 341 kts | 5° |
| 2026-04-25 23:06 | 55.58601 | -3.08048 | 11826 ft | 340 kts | 1° |
| 2026-04-25 23:07 | 55.60919 | -3.08624 | 11322 ft | 337 kts | 339° |
| 2026-04-25 23:07 | 55.63001 | -3.10481 | 10822 ft | 335 kts | 329° |
| 2026-04-25 23:07 | 55.65005 | -3.12576 | 10322 ft | 334 kts | 329° |
| 2026-04-25 23:07 | 55.66996 | -3.14681 | 9820 ft | 333 kts | 329° |
| 2026-04-25 23:08 | 55.68984 | -3.16765 | 9323 ft | 331 kts | 329° |
| 2026-04-25 23:08 | 55.70976 | -3.18804 | 8812 ft | 330 kts | 329° |
| 2026-04-25 23:08 | 55.72935 | -3.20805 | 8324 ft | 328 kts | 329° |
| 2026-04-25 23:08 | 55.74907 | -3.22821 | 7818 ft | 326 kts | 329° |
| 2026-04-25 23:09 | 55.76867 | -3.24827 | 7320 ft | 324 kts | 329° |
| 2026-04-25 23:09 | 55.78819 | -3.26827 | 6818 ft | 323 kts | 329° |
| 2026-04-25 23:09 | 55.80605 | -3.29179 | 6314 ft | 320 kts | 311° |
| 2026-04-25 23:09 | 55.81731 | -3.32537 | 5817 ft | 317 kts | 288° |
| 2026-04-25 23:10 | 55.82038 | -3.36378 | 5313 ft | 314 kts | 271° |
| 2026-04-25 23:10 | 55.82053 | -3.40242 | 4841 ft | 311 kts | 270° |
| 2026-04-25 23:10 | 55.82044 | -3.44005 | 4702 ft | 296 kts | 269° |
| 2026-04-25 23:10 | 55.82033 | -3.47548 | 4685 ft | 278 kts | 269° |
| 2026-04-25 23:11 | 55.82021 | -3.50918 | 4509 ft | 268 kts | 269° |
| 2026-04-25 23:11 | 55.82008 | -3.54212 | 4243 ft | 265 kts | 269° |
| 2026-04-25 23:11 | 55.81995 | -3.57465 | 3963 ft | 261 kts | 269° |
| 2026-04-25 23:11 | 55.81939 | -3.60636 | 3779 ft | 251 kts | 261° |
| 2026-04-25 23:12 | 55.81341 | -3.63438 | 3717 ft | 235 kts | 242° |
| 2026-04-25 23:12 | 55.80559 | -3.65890 | 3711 ft | 221 kts | 240° |
| 2026-04-25 23:12 | 55.79800 | -3.68178 | 3716 ft | 209 kts | 231° |
| 2026-04-25 23:12 | 55.79112 | -3.70374 | 3710 ft | 197 kts | 249° |
| 2026-04-25 23:13 | 55.79037 | -3.72709 | 3721 ft | 196 kts | 288° |
| 2026-04-25 23:13 | 55.79815 | -3.74682 | 3725 ft | 199 kts | 321° |
| 2026-04-25 23:13 | 55.80984 | -3.76015 | 3718 ft | 201 kts | 340° |
| 2026-04-25 23:13 | 55.82343 | -3.75964 | 3713 ft | 201 kts | 27° |
| 2026-04-25 23:14 | 55.83260 | -3.74169 | 3719 ft | 202 kts | 74° |
| 2026-04-25 23:14 | 55.83392 | -3.71688 | 3732 ft | 204 kts | 86° |
| 2026-04-25 23:14 | 55.83863 | -3.69368 | 3728 ft | 203 kts | 51° |
| 2026-04-25 23:14 | 55.84446 | -3.68066 | 3718 ft | 202 kts | 54° |
| 2026-04-25 23:15 | 55.85183 | -3.66028 | 3564 ft | 189 kts | 58° |
| 2026-04-25 23:15 | 55.85845 | -3.64088 | 3356 ft | 177 kts | 58° |
| 2026-04-25 23:15 | 55.86658 | -3.61710 | 3047 ft | 164 kts | 58° |
| 2026-04-25 23:15 | 55.87052 | -3.60559 | 2904 ft | 159 kts | 58° |
| 2026-04-25 23:16 | 55.87793 | -3.58394 | 2642 ft | 150 kts | 58° |
| 2026-04-25 23:16 | 55.88158 | -3.57327 | 2505 ft | 149 kts | 58° |
| 2026-04-25 23:16 | 55.88692 | -3.55765 | 2315 ft | 147 kts | 58° |
| 2026-04-25 23:16 | 55.89222 | -3.54214 | 2114 ft | 145 kts | 58° |
| 2026-04-25 23:17 | 55.89745 | -3.52686 | 1926 ft | 145 kts | 58° |
| 2026-04-25 23:17 | 55.90270 | -3.51147 | 1728 ft | 145 kts | 58° |
| 2026-04-25 23:17 | 55.90794 | -3.49611 | 1534 ft | 145 kts | 58° |
| 2026-04-25 23:17 | 55.91323 | -3.48083 | 1330 ft | 145 kts | 58° |
| 2026-04-25 23:18 | 55.91861 | -3.46572 | 1100 ft | 143 kts | 57° |
| 2026-04-25 23:18 | 55.92383 | -3.45061 | 982 ft | 143 kts | 60° |
| 2026-04-25 23:18 | 55.92884 | -3.43523 | 812 ft | 144 kts | 59° |
| 2026-04-25 23:18 | 55.93395 | -3.42000 | 572 ft | 142 kts | 58° |
| 2026-04-25 23:19 | 55.93907 | -3.40494 | 390 ft | 142 kts | 59° |
| 2026-04-25 23:19 | 55.94410 | -3.39009 | 201 ft | 141 kts | 59° |
| 2026-04-25 23:19 | 55.94906 | -3.37535 | 110 ft | 129 kts | 59° |
| 2026-04-25 23:19 | 55.95245 | -3.36524 | 112 ft | 72 kts | 59° |
| 2026-04-25 23:20 | 55.95454 | -3.35909 | 110 ft | 44 kts | 58° |
| 2026-04-25 23:20 | 55.95562 | -3.35589 | 111 ft | 17 kts | 65° |
| 2026-04-25 23:20 | 55.95505 | -3.35442 | 114 ft | 14 kts | 147° |
| 2026-04-25 23:20 | 55.95426 | -3.35426 | 115 ft | 11 kts | 216° |
| 2026-04-25 23:21 | 55.95387 | -3.35531 | 115 ft | 10 kts | 240° |
| 2026-04-25 23:21 | 55.95353 | -3.35636 | 113 ft | 10 kts | 239° |
| 2026-04-25 23:21 | 55.95314 | -3.35752 | 112 ft | 11 kts | 239° |
| 2026-04-25 23:21 | 55.95272 | -3.35882 | 115 ft | 13 kts | 240° |
| 2026-04-25 23:22 | 55.95209 | -3.35987 | 114 ft | 13 kts | 182° |
| 2026-04-25 23:22 | 55.95130 | -3.35902 | 114 ft | 14 kts | 132° |
| 2026-04-25 23:22 | 55.95069 | -3.35788 | 116 ft | 13 kts | 188° |
| 2026-04-25 23:23 | 55.94983 | -3.35955 | 114 ft | 7 kts | 251° |
| 2026-04-25 23:23 | 55.94970 | -3.36028 | 116 ft | 5 kts | 251° |
| 2026-04-25 23:23 | 55.94968 | -3.36038 | 114 ft | 0 kts | 251° |